Time;durP1;ratioP1;P1;durP2;ratioP2;P2;SDS_P1;SDS_P2;PMS_P1;PMS_P2;Temp;Humidity;BMP_temperature;BMP_pressure;BME280_temperature;BME280_humidity;BME280_pressure;Samples;Min_cycle;Max_cycle;Signal;HPM_P1;HPM_P2
2022/09/07 00:00:33;;;;;;;27.60;24.58;;;15.10;99.90;;;;;;5095835;28;20495;-73
2022/09/07 00:03:00;;;;;;;30.02;25.70;;;15.00;99.90;;;;;;5089953;28;20053;-72
2022/09/07 00:05:29;;;;;;;28.70;25.90;;;15.00;99.90;;;;;;5075615;28;20049;-73
2022/09/07 00:07:57;;;;;;;28.05;25.10;;;14.90;99.90;;;;;;5086993;28;20407;-72
2022/09/07 00:10:25;;;;;;;29.35;26.25;;;14.90;99.90;;;;;;5096475;28;20040;-73
2022/09/07 00:12:54;;;;;;;29.25;25.85;;;14.90;99.90;;;;;;5088504;28;20060;-73
2022/09/07 00:15:22;;;;;;;29.02;26.00;;;14.90;99.90;;;;;;5074222;28;20068;-73
2022/09/07 00:17:50;;;;;;;28.88;25.13;;;14.90;99.90;;;;;;5075289;28;20076;-73
2022/09/07 00:20:17;;;;;;;29.27;25.92;;;14.90;99.90;;;;;;5075554;28;20036;-73
2022/09/07 00:22:45;;;;;;;27.25;24.38;;;14.90;99.90;;;;;;5075599;28;20036;-72
2022/09/07 00:25:13;;;;;;;28.80;25.55;;;14.90;99.90;;;;;;5076057;28;20097;-73
2022/09/07 00:27:40;;;;;;;29.77;26.88;;;14.80;99.90;;;;;;5081537;28;20044;-73
2022/09/07 00:30:10;;;;;;;28.50;25.50;;;14.80;99.90;;;;;;5093941;28;20040;-72
2022/09/07 00:32:38;;;;;;;28.13;24.98;;;14.80;99.90;;;;;;5095159;28;20036;-72
2022/09/07 00:35:06;;;;;;;29.13;25.65;;;14.70;99.90;;;;;;5095099;28;20036;-73
2022/09/07 00:37:33;;;;;;;33.80;25.90;;;14.70;99.90;;;;;;5096035;28;20048;-73
2022/09/07 00:40:01;;;;;;;29.55;26.52;;;14.60;99.90;;;;;;5095206;28;20036;-73
2022/09/07 00:42:28;;;;;;;27.80;24.90;;;14.60;99.90;;;;;;5093815;28;20396;-73
2022/09/07 00:45:06;;;;;;;29.02;26.08;;;14.60;99.90;;;;;;5093055;28;20058;-74
2022/09/07 00:47:41;;;;;;;28.33;25.40;;;14.60;99.90;;;;;;5074345;28;20050;-75
2022/09/07 00:50:15;;;;;;;33.15;25.50;;;14.60;99.90;;;;;;5073336;28;20048;-75
2022/09/07 00:52:44;;;;;;;28.30;24.98;;;14.60;99.90;;;;;;5073931;28;20044;-75
2022/09/07 00:55:15;;;;;;;25.77;22.98;;;14.50;99.90;;;;;;5075615;28;21351;-75
2022/09/07 00:57:48;;;;;;;31.40;24.55;;;14.50;99.90;;;;;;5095197;28;20044;-75
2022/09/07 01:00:16;;;;;;;26.65;24.02;;;14.50;99.90;;;;;;5094727;28;20051;-74
2022/09/07 01:02:46;;;;;;;29.25;24.95;;;14.40;99.90;;;;;;5093676;28;20510;-73
2022/09/07 01:05:19;;;;;;;29.55;24.50;;;14.40;99.90;;;;;;5092204;28;20499;-74
2022/09/07 01:07:47;;;;;;;27.63;24.90;;;14.40;99.90;;;;;;5072929;28;20070;-74
2022/09/07 01:10:15;;;;;;;31.90;23.70;;;14.40;99.90;;;;;;5074065;28;20389;-74
2022/09/07 01:12:42;;;;;;;26.20;22.48;;;14.40;99.90;;;;;;5077900;28;20119;-74
2022/09/07 01:15:11;;;;;;;26.67;22.80;;;14.50;99.90;;;;;;5093082;28;20040;-74
2022/09/07 01:17:56;;;;;;;26.83;22.63;;;14.40;99.90;;;;;;5093558;28;20047;-74
2022/09/07 01:20:40;;;;;;;25.27;22.77;;;14.50;99.90;;;;;;5094357;28;20073;-74
2022/09/07 01:23:39;;;;;;;26.60;23.75;;;14.50;99.90;;;;;;5093886;28;20047;-74
2022/09/07 01:26:40;;;;;;;44.15;35.78;;;14.50;99.90;;;;;;5086346;28;20041;-75
2022/09/07 01:29:17;;;;;;;24.85;22.25;;;14.60;99.90;;;;;;5074692;28;20040;-75
2022/09/07 01:31:54;;;;;;;27.65;24.75;;;14.70;99.90;;;;;;5073699;28;20044;-75
2022/09/07 01:34:25;;;;;;;27.73;23.70;;;14.70;99.90;;;;;;5073550;28;20066;-74
2022/09/07 01:37:00;;;;;;;34.50;23.38;;;14.80;99.90;;;;;;5084475;28;20052;-74
2022/09/07 01:39:36;;;;;;;25.00;22.30;;;14.80;99.90;;;;;;5093716;28;20062;-73
2022/09/07 01:42:10;;;;;;;24.83;21.65;;;14.80;99.90;;;;;;5093957;28;20036;-74
2022/09/07 01:44:42;;;;;;;25.33;22.10;;;14.80;99.90;;;;;;5093737;28;20503;-74
2022/09/07 01:47:15;;;;;;;25.35;22.40;;;14.80;99.90;;;;;;5078960;28;20395;-74
2022/09/07 01:49:48;;;;;;;24.27;21.75;;;14.80;99.90;;;;;;5073438;28;20032;-74
2022/09/07 01:52:24;;;;;;;23.27;20.95;;;14.80;99.90;;;;;;5071683;28;20070;-74
2022/09/07 01:54:59;;;;;;;24.92;21.40;;;14.80;99.90;;;;;;5073341;28;20055;-74
2022/09/07 01:57:30;;;;;;;27.23;21.80;;;14.80;99.90;;;;;;5089441;28;20148;-74
2022/09/07 02:00:05;;;;;;;24.30;21.90;;;14.80;99.90;;;;;;5093471;28;20105;-74
2022/09/07 02:02:44;;;;;;;25.67;21.80;;;14.80;99.90;;;;;;5088045;28;20419;-73
2022/09/07 02:05:18;;;;;;;25.45;22.48;;;14.80;99.90;;;;;;5082276;28;20048;-74
2022/09/07 02:07:48;;;;;;;25.60;22.42;;;14.80;99.90;;;;;;5093552;28;20044;-74
2022/09/07 02:10:22;;;;;;;25.38;22.67;;;14.80;99.90;;;;;;5093820;28;20032;-74
2022/09/07 02:12:54;;;;;;;25.38;22.77;;;14.80;99.90;;;;;;5091624;28;20154;-74
2022/09/07 02:15:29;;;;;;;26.30;23.58;;;14.80;99.90;;;;;;5083244;28;20071;-75
2022/09/07 02:18:01;;;;;;;28.75;25.85;;;14.80;99.90;;;;;;5073198;28;20519;-73
2022/09/07 02:20:32;;;;;;;28.95;24.45;;;14.80;99.90;;;;;;5073906;28;20385;-75
2022/09/07 02:23:04;;;;;;;27.23;24.17;;;14.80;99.90;;;;;;5073585;28;20036;-73
2022/09/07 02:25:37;;;;;;;25.90;23.15;;;14.70;99.90;;;;;;5075762;28;20041;-75
2022/09/07 02:28:10;;;;;;;25.60;22.27;;;14.70;99.90;;;;;;5087154;28;20052;-75
2022/09/07 02:30:39;;;;;;;24.67;22.05;;;14.70;99.90;;;;;;5084830;28;20106;-75
2022/09/07 02:33:06;;;;;;;24.83;22.30;;;14.60;99.90;;;;;;5084456;28;20051;-74
2022/09/07 02:35:34;;;;;;;28.98;22.92;;;14.60;99.90;;;;;;5085780;28;20448;-75
2022/09/07 02:38:05;;;;;;;25.35;22.73;;;14.50;99.90;;;;;;5075832;28;20063;-74
2022/09/07 02:40:33;;;;;;;26.00;23.20;;;14.40;99.90;;;;;;5075032;28;20496;-74
2022/09/07 02:43:03;;;;;;;30.65;23.50;;;14.30;99.90;;;;;;5074134;28;20041;-74
2022/09/07 02:45:44;;;;;;;25.20;22.17;;;14.40;99.90;;;;;;5084185;28;20089;-74
2022/09/07 02:48:20;;;;;;;25.60;22.90;;;14.40;99.90;;;;;;5092800;28;20453;-75
2022/09/07 02:51:15;;;;;;;28.77;25.25;;;14.40;99.90;;;;;;5094492;28;20040;-75
2022/09/07 02:54:11;;;;;;;43.15;35.72;;;14.40;99.90;;;;;;5079822;28;20063;-74
2022/09/07 02:56:52;;;;;;;37.53;33.63;;;14.40;99.90;;;;;;5070746;28;20045;-74
2022/09/07 02:59:35;;;;;;;41.55;37.05;;;14.40;99.90;;;;;;5073083;28;20044;-74
2022/09/07 03:02:11;;;;;;;38.72;34.20;;;14.40;99.90;;;;;;5073581;28;20037;-75
2022/09/07 03:04:46;;;;;;;28.65;25.65;;;14.30;99.90;;;;;;5085626;28;20071;-75
2022/09/07 03:07:17;;;;;;;29.92;25.20;;;14.40;99.90;;;;;;5094753;28;20079;-74
2022/09/07 03:09:48;;;;;;;35.30;27.73;;;14.30;99.90;;;;;;5094718;28;20043;-75
2022/09/07 03:12:16;;;;;;;30.55;27.27;;;14.30;99.90;;;;;;5091998;28;20491;-75
2022/09/07 03:14:44;;;;;;;32.90;27.45;;;14.20;99.90;;;;;;5085143;28;20069;-75
2022/09/07 03:17:14;;;;;;;31.95;28.58;;;14.20;99.90;;;;;;5094961;28;20047;-75
2022/09/07 03:19:41;;;;;;;29.52;26.08;;;14.20;99.90;;;;;;5095416;28;20051;-75
2022/09/07 03:22:09;;;;;;;30.35;26.27;;;14.20;99.90;;;;;;5095348;28;20151;-75
2022/09/07 03:24:36;;;;;;;28.67;25.65;;;14.20;99.90;;;;;;5082897;28;20052;-75
2022/09/07 03:27:04;;;;;;;31.10;27.73;;;14.20;99.90;;;;;;5074695;28;20496;-75
2022/09/07 03:29:31;;;;;;;28.95;25.80;;;14.20;99.90;;;;;;5074333;28;20036;-75
2022/09/07 03:31:58;;;;;;;31.65;25.83;;;14.20;99.90;;;;;;5077924;28;20049;-75
2022/09/07 03:34:27;;;;;;;31.15;27.88;;;14.10;99.90;;;;;;5086919;28;20035;-75
2022/09/07 03:36:54;;;;;;;28.85;25.95;;;14.10;99.90;;;;;;5097611;28;20047;-75
2022/09/07 03:39:22;;;;;;;27.05;24.17;;;14.10;99.90;;;;;;5096495;28;20040;-75
2022/09/07 03:41:50;;;;;;;30.35;26.95;;;14.00;99.90;;;;;;5096357;28;20054;-75
2022/09/07 03:44:17;;;;;;;30.65;26.80;;;14.00;99.90;;;;;;5087432;28;20066;-74
2022/09/07 03:46:45;;;;;;;33.47;26.85;;;13.90;99.90;;;;;;5074446;28;20064;-74
2022/09/07 03:49:12;;;;;;;30.27;25.75;;;14.00;99.90;;;;;;5076040;28;20105;-74
2022/09/07 03:51:41;;;;;;;27.45;24.60;;;14.00;99.90;;;;;;5075324;28;20041;-74
2022/09/07 03:54:09;;;;;;;29.85;25.50;;;14.00;99.90;;;;;;5082201;28;20043;-73
2022/09/07 03:56:36;;;;;;;29.70;26.10;;;14.00;99.90;;;;;;5082911;28;20118;-73
2022/09/07 03:59:03;;;;;;;29.75;26.60;;;13.90;99.90;;;;;;5075655;28;20052;-73
2022/09/07 04:01:31;;;;;;;29.30;24.33;;;13.90;99.90;;;;;;5075271;28;20488;-73
2022/09/07 04:04:01;;;;;;;27.55;24.00;;;13.80;99.90;;;;;;5088881;28;20040;-73
2022/09/07 04:06:29;;;;;;;32.53;25.25;;;13.90;99.90;;;;;;5093913;28;20051;-73
2022/09/07 04:09:02;;;;;;;28.35;24.90;;;13.90;99.90;;;;;;5094526;28;20393;-73
2022/09/07 04:11:30;;;;;;;29.30;23.75;;;13.90;99.90;;;;;;5095314;28;20071;-73
2022/09/07 04:13:58;;;;;;;32.78;27.17;;;13.80;99.90;;;;;;5078753;28;20528;-73
2022/09/07 04:16:26;;;;;;;29.88;25.10;;;13.80;99.90;;;;;;5075225;28;20048;-73
2022/09/07 04:18:54;;;;;;;29.00;24.75;;;13.80;99.90;;;;;;5075538;28;20064;-73
2022/09/07 04:21:23;;;;;;;28.70;23.50;;;13.80;99.90;;;;;;5076514;28;20040;-74
2022/09/07 04:23:51;;;;;;;27.42;23.85;;;13.70;99.90;;;;;;5091792;28;20040;-73
2022/09/07 04:26:21;;;;;;;26.63;23.27;;;13.70;99.90;;;;;;5095261;28;20498;-73
2022/09/07 04:28:49;;;;;;;26.77;23.88;;;13.80;99.90;;;;;;5094062;28;20048;-73
2022/09/07 04:31:17;;;;;;;27.90;24.27;;;13.80;99.90;;;;;;5094209;28;20063;-71
2022/09/07 04:33:45;;;;;;;26.13;23.33;;;13.80;99.90;;;;;;5079499;28;20045;-73
2022/09/07 04:36:13;;;;;;;26.92;22.27;;;13.90;99.90;;;;;;5074917;28;20052;-74
2022/09/07 04:38:40;;;;;;;25.75;23.15;;;13.90;99.90;;;;;;5075530;28;20067;-74
2022/09/07 04:41:10;;;;;;;26.05;21.33;;;14.00;99.90;;;;;;5074503;28;20124;-74
2022/09/07 04:43:42;;;;;;;26.08;21.80;;;14.00;99.90;;;;;;5086438;28;20494;-74
2022/09/07 04:46:14;;;;;;;26.45;22.65;;;14.10;99.90;;;;;;5077281;28;20119;-74
2022/09/07 04:48:42;;;;;;;29.48;23.17;;;14.10;99.90;;;;;;5074594;28;20086;-74
2022/09/07 04:51:10;;;;;;;29.00;24.08;;;14.20;99.90;;;;;;5074346;28;20040;-73
2022/09/07 04:53:38;;;;;;;31.02;23.48;;;14.20;99.90;;;;;;5084917;28;20044;-74
2022/09/07 04:56:06;;;;;;;34.80;24.15;;;14.30;99.90;;;;;;5094428;28;20066;-74
2022/09/07 04:58:34;;;;;;;31.38;24.08;;;14.30;99.90;;;;;;5093266;28;20051;-74
2022/09/07 05:01:04;;;;;;;30.15;24.65;;;14.30;99.90;;;;;;5094602;28;20044;-74
2022/09/07 05:03:33;;;;;;;27.30;23.48;;;14.40;99.90;;;;;;5076124;28;20040;-74
2022/09/07 05:06:01;;;;;;;29.23;24.17;;;14.40;99.90;;;;;;5092916;28;20075;-74
2022/09/07 05:08:29;;;;;;;28.73;22.80;;;14.50;99.90;;;;;;5094387;28;20051;-75
2022/09/07 05:10:57;;;;;;;28.75;23.13;;;14.60;99.90;;;;;;5094659;28;20052;-74
2022/09/07 05:13:24;;;;;;;32.67;24.65;;;14.70;99.90;;;;;;5086343;28;20044;-74
2022/09/07 05:15:52;;;;;;;28.38;22.83;;;14.80;99.90;;;;;;5094309;28;20047;-74
2022/09/07 05:18:20;;;;;;;27.08;21.45;;;14.90;99.90;;;;;;5094001;28;20055;-74
2022/09/07 05:20:48;;;;;;;24.30;21.52;;;14.90;99.90;;;;;;5094129;28;20066;-74
2022/09/07 05:23:16;;;;;;;26.48;21.77;;;15.00;99.90;;;;;;5075291;28;20384;-74
2022/09/07 05:25:45;;;;;;;28.30;20.98;;;15.10;99.90;;;;;;5073714;28;20641;-74
2022/09/07 05:28:13;;;;;;;24.40;20.27;;;15.20;99.90;;;;;;5073608;28;20094;-74
2022/09/07 05:30:40;;;;;;;23.58;21.08;;;15.40;99.90;;;;;;5073803;28;20412;-74
2022/09/07 05:33:08;;;;;;;26.55;19.88;;;15.50;99.90;;;;;;5088515;28;20036;-74
2022/09/07 05:35:36;;;;;;;27.75;21.83;;;15.60;99.90;;;;;;5094118;28;20047;-75
2022/09/07 05:38:04;;;;;;;23.92;19.65;;;15.80;99.90;;;;;;5090288;28;20033;-74
2022/09/07 05:40:32;;;;;;;28.92;24.20;;;15.90;99.90;;;;;;5080713;28;20067;-74
2022/09/07 05:43:00;;;;;;;23.67;19.92;;;16.10;99.90;;;;;;5088388;28;20040;-74
2022/09/07 05:45:27;;;;;;;25.65;19.20;;;16.40;99.90;;;;;;5078298;28;20043;-74
2022/09/07 05:47:55;;;;;;;37.58;27.40;;;16.70;99.90;;;;;;5086797;28;20053;-74
2022/09/07 05:50:22;;;;;;;25.52;20.60;;;17.00;99.90;;;;;;5073281;28;20448;-74
2022/09/07 05:52:51;;;;;;;33.58;22.65;;;17.30;99.90;;;;;;5071896;28;20496;-75
2022/09/07 05:55:18;;;;;;;47.13;23.05;;;17.60;99.90;;;;;;5075047;28;20040;-74
2022/09/07 05:57:46;;;;;;;22.75;18.55;;;17.90;99.90;;;;;;5081730;28;20047;-74
2022/09/07 06:00:14;;;;;;;23.73;19.92;;;18.10;99.90;;;;;;5092041;28;20044;-73
2022/09/07 06:02:41;;;;;;;25.63;18.40;;;18.30;99.90;;;;;;5088568;28;20040;-74
2022/09/07 06:05:11;;;;;;;27.13;22.15;;;18.30;99.90;;;;;;5092211;28;20052;-73
2022/09/07 06:07:38;;;;;;;22.17;19.25;;;18.40;99.90;;;;;;5093114;28;20040;-74
2022/09/07 06:10:08;;;;;;;24.48;19.73;;;18.70;99.90;;;;;;5093545;28;20042;-74
2022/09/07 06:12:35;;;;;;;22.48;17.05;;;18.90;99.90;;;;;;5091709;28;20062;-72
2022/09/07 06:15:04;;;;;;;20.83;15.43;;;19.00;99.90;;;;;;5080807;28;20090;-73
2022/09/07 06:17:32;;;;;;;19.70;16.20;;;19.00;99.90;;;;;;5074067;28;20553;-73
2022/09/07 06:19:59;;;;;;;26.02;19.48;;;19.10;99.90;;;;;;5073634;28;20049;-74
2022/09/07 06:22:26;;;;;;;22.58;19.38;;;19.20;99.90;;;;;;5073129;28;20051;-73
2022/09/07 06:24:54;;;;;;;21.88;16.63;;;19.30;99.90;;;;;;5074093;28;20087;-73
2022/09/07 06:27:23;;;;;;;26.17;17.77;;;19.50;99.90;;;;;;5080215;28;20460;-72
2022/09/07 06:29:50;;;;;;;28.38;17.42;;;19.60;99.90;;;;;;5094597;28;20119;-74
2022/09/07 06:32:17;;;;;;;22.42;15.07;;;19.90;99.90;;;;;;5091391;28;20051;-74
2022/09/07 06:34:45;;;;;;;17.63;15.15;;;20.10;99.90;;;;;;5093633;28;20044;-74
2022/09/07 06:37:12;;;;;;;18.23;15.40;;;20.30;99.90;;;;;;5093601;28;20079;-75
2022/09/07 06:39:40;;;;;;;20.85;15.48;;;20.50;99.90;;;;;;5082318;28;20040;-76
2022/09/07 06:42:07;;;;;;;23.38;14.70;;;20.80;99.90;;;;;;5073848;28;20040;-74
2022/09/07 06:44:43;;;;;;;17.85;14.30;;;21.00;1.00;;;;;;5071643;28;20044;-74
2022/09/07 06:47:11;;;;;;;21.58;15.18;;;21.10;1.00;;;;;;5072686;28;20123;-74
2022/09/07 06:49:38;;;;;;;18.70;14.73;;;20.90;1.00;;;;;;5072435;28;20052;-74
2022/09/07 06:52:05;;;;;;;19.38;14.18;;;20.70;1.00;;;;;;5083954;28;20044;-73
2022/09/07 06:54:33;;;;;;;23.65;19.50;;;20.70;1.00;;;;;;5091378;28;20129;-74
2022/09/07 06:57:06;;;;;;;25.52;19.92;;;20.70;99.90;;;;;;5083790;28;20047;-73
2022/09/07 06:59:34;;;;;;;16.35;14.65;;;20.70;99.90;;;;;;5073429;28;20515;-73
2022/09/07 07:02:03;;;;;;;19.27;15.50;;;20.90;99.90;;;;;;5079365;28;20043;-72
2022/09/07 07:04:30;;;;;;;19.38;14.48;;;21.40;1.00;;;;;;5083116;28;20040;-73
2022/09/07 07:06:58;;;;;;;17.52;12.98;;;21.60;99.90;;;;;;5096875;28;20040;-72
2022/09/07 07:09:25;;;;;;;18.00;13.90;;;21.70;1.00;;;;;;5080900;28;20063;-73
2022/09/07 07:11:52;;;;;;;18.55;14.57;;;22.00;99.90;;;;;;5076668;28;20475;-73
2022/09/07 07:14:20;;;;;;;17.10;13.48;;;22.10;1.00;;;;;;5074599;28;20036;-73
2022/09/07 07:16:47;;;;;;;17.23;12.93;;;22.20;1.00;;;;;;5076725;28;20045;-73
2022/09/07 07:19:16;;;;;;;16.40;14.70;;;22.20;1.00;;;;;;5076651;28;20040;-72
2022/09/07 07:21:44;;;;;;;17.08;14.38;;;22.30;99.90;;;;;;5077752;28;20059;-74
2022/09/07 07:24:11;;;;;;;15.95;14.32;;;22.60;99.90;;;;;;5078551;28;20037;-74
2022/09/07 07:26:40;;;;;;;15.70;13.93;;;22.80;1.00;;;;;;5077266;28;20094;-74
2022/09/07 07:29:08;;;;;;;18.88;13.95;;;22.90;99.90;;;;;;5083581;28;20044;-71
2022/09/07 07:31:35;;;;;;;19.02;15.63;;;23.30;99.90;;;;;;5077705;28;20052;-72
2022/09/07 07:34:03;;;;;;;19.40;15.32;;;23.30;71.40;;;;;;5076530;28;20098;-72
2022/09/07 07:36:32;;;;;;;19.17;15.85;;;23.30;1.00;;;;;;5077682;28;20052;-71
2022/09/07 07:38:59;;;;;;;19.08;14.52;;;23.50;1.00;;;;;;5076909;28;20138;-73
2022/09/07 07:41:30;;;;;;;18.73;16.52;;;23.70;1.00;;;;;;5076549;28;20044;-72
2022/09/07 07:43:59;;;;;;;18.48;15.00;;;23.70;1.00;;;;;;5079427;28;20040;-71
2022/09/07 07:46:27;;;;;;;20.73;16.23;;;23.80;99.90;;;;;;5092372;28;20048;-72
2022/09/07 07:48:55;;;;;;;21.10;17.75;;;23.90;99.90;;;;;;5095198;28;20091;-72
2022/09/07 07:51:23;;;;;;;19.27;17.23;;;23.90;99.90;;;;;;5094676;28;20074;-72
2022/09/07 07:53:51;;;;;;;20.73;17.17;;;23.90;99.90;;;;;;5092960;28;20329;-72
2022/09/07 07:56:19;;;;;;;15.23;13.20;;;23.80;99.90;;;;;;5094651;28;20059;-72
2022/09/07 07:58:47;;;;;;;12.73;11.43;;;24.00;1.00;;;;;;5087601;28;20423;-72
2022/09/07 08:01:17;;;;;;;16.30;14.00;;;24.30;1.00;;;;;;5080038;28;20040;-72
2022/09/07 08:03:46;;;;;;;12.52;11.23;;;24.50;1.00;;;;;;5075358;28;20032;-72
2022/09/07 08:06:15;;;;;;;14.13;12.20;;;24.50;99.90;;;;;;5096049;28;20553;-72
2022/09/07 08:08:43;;;;;;;14.82;12.80;;;24.40;99.90;;;;;;5096564;28;20123;-72
2022/09/07 08:11:15;;;;;;;16.45;12.90;;;24.40;1.00;;;;;;5095748;28;20047;-72
2022/09/07 08:13:44;;;;;;;19.02;13.30;;;24.30;1.00;;;;;;5096730;28;20091;-71
2022/09/07 08:16:12;;;;;;;15.23;10.93;;;24.30;99.90;;;;;;5093828;28;20048;-73
2022/09/07 08:18:40;;;;;;;14.15;11.40;;;24.30;99.90;;;;;;5074445;28;20061;-72
2022/09/07 08:21:10;;;;;;;13.75;11.38;;;24.50;99.90;;;;;;5077594;28;20052;-72
2022/09/07 08:23:38;;;;;;;16.52;11.60;;;24.70;99.90;;;;;;5075888;28;20040;-72
2022/09/07 08:26:05;;;;;;;13.88;11.68;;;24.70;99.90;;;;;;5078387;28;20047;-72
2022/09/07 08:28:37;;;;;;;13.55;12.15;;;24.60;99.90;;;;;;5082250;28;20048;-73
2022/09/07 08:31:05;;;;;;;18.73;15.15;;;24.80;99.90;;;;;;5098563;28;20101;-73
2022/09/07 08:33:36;;;;;;;13.55;12.25;;;25.00;99.90;;;;;;5097399;28;20044;-73
2022/09/07 08:36:06;;;;;;;25.67;14.02;;;25.20;1.00;;;;;;5098501;28;20118;-73
2022/09/07 08:38:34;;;;;;;15.00;11.95;;;25.40;1.00;;;;;;5100898;28;20047;-72
2022/09/07 08:41:13;;;;;;;15.57;11.98;;;25.40;1.00;;;;;;5100471;28;20066;-73
2022/09/07 08:43:50;;;;;;;13.07;11.73;;;25.50;1.00;;;;;;5100761;28;20043;-72
2022/09/07 08:46:28;;;;;;;15.68;13.57;;;25.50;1.00;;;;;;5101491;28;20094;-73
2022/09/07 08:48:58;;;;;;;13.55;11.88;;;25.70;1.00;;;;;;5085165;28;20047;-73
2022/09/07 08:51:34;;;;;;;15.52;13.57;;;25.90;1.00;;;;;;5075500;28;20491;-77
2022/09/07 08:54:03;;;;;;;19.95;13.85;;;26.10;99.90;;;;;;5082019;28;20055;-76
2022/09/07 08:56:34;;;;;;;15.75;13.80;;;26.20;1.00;;;;;;5097547;28;20103;-78
2022/09/07 08:59:11;;;;;;;12.20;10.55;;;26.20;99.90;;;;;;5101175;28;20560;-80
2022/09/07 09:01:42;;;;;;;11.07;9.77;;;26.10;99.90;;;;;;5107854;28;20036;-81
2022/09/07 09:04:14;;;;;;;15.85;12.52;;;26.20;1.00;;;;;;5097461;28;20093;-76
2022/09/07 09:06:52;;;;;;;17.08;10.77;;;26.30;99.90;;;;;;5095912;28;20085;-72
2022/09/07 09:09:28;;;;;;;19.73;14.15;;;26.30;99.90;;;;;;5094651;28;20048;-72
2022/09/07 09:12:07;;;;;;;23.73;18.05;;;26.40;99.90;;;;;;5094085;28;20070;-72
2022/09/07 09:14:43;;;;;;;14.18;12.68;;;26.40;99.90;;;;;;5093340;28;20040;-72
2022/09/07 09:17:20;;;;;;;15.20;12.93;;;26.40;1.00;;;;;;5094020;28;20109;-72
2022/09/07 09:19:56;;;;;;;15.68;13.40;;;26.40;1.00;;;;;;5092559;28;20074;-71
2022/09/07 09:22:27;;;;;;;19.10;12.32;;;26.50;99.90;;;;;;5094005;28;20040;-72
2022/09/07 09:25:00;;;;;;;18.27;13.45;;;26.60;99.90;;;;;;5094632;28;20037;-72
2022/09/07 09:27:28;;;;;;;16.90;13.80;;;26.70;99.90;;;;;;5094363;28;20380;-72
2022/09/07 09:29:57;;;;;;;14.48;13.02;;;26.80;99.90;;;;;;5092307;28;20044;-71
2022/09/07 09:32:33;;;;;;;17.55;12.80;;;26.90;1.00;;;;;;5093793;28;20086;-71
2022/09/07 09:35:10;;;;;;;13.10;11.05;;;26.90;1.00;;;;;;5089324;28;20040;-72
2022/09/07 09:37:39;;;;;;;14.10;12.57;;;26.80;1.00;;;;;;5092391;28;20036;-70
2022/09/07 09:40:17;;;;;;;15.30;12.52;;;26.80;99.90;;;;;;5091579;28;20071;-71
2022/09/07 09:42:45;;;;;;;16.00;14.30;;;26.80;1.00;;;;;;5091996;28;20044;-72
2022/09/07 09:45:19;;;;;;;16.90;12.07;;;26.90;99.90;;;;;;5077877;28;20123;-71
2022/09/07 09:47:52;;;;;;;13.98;12.32;;;27.00;1.00;;;;;;5092887;28;20048;-72
2022/09/07 09:50:24;;;;;;;19.42;16.08;;;27.10;1.00;;;;;;5090373;28;20047;-72
2022/09/07 09:52:53;;;;;;;24.75;14.50;;;27.10;1.00;;;;;;5083574;28;20106;-72
2022/09/07 09:55:30;;;;;;;14.18;12.70;;;27.30;1.00;;;;;;5093360;28;20139;-72
2022/09/07 09:58:01;;;;;;;13.38;12.05;;;27.40;1.00;;;;;;5091533;28;20407;-70
2022/09/07 10:00:32;;;;;;;13.43;12.00;;;27.40;1.00;;;;;;5073513;28;20546;-75
2022/09/07 10:03:07;;;;;;;14.38;11.38;;;27.40;1.00;;;;;;5076623;28;20082;-74
2022/09/07 10:05:37;;;;;;;16.00;12.17;;;27.50;1.00;;;;;;5073211;28;20044;-73
2022/09/07 10:08:16;;;;;;;14.32;11.63;;;27.50;1.00;;;;;;5088857;28;20047;-73
2022/09/07 10:10:55;;;;;;;48.55;16.13;;;27.50;34.70;;;;;;5093746;28;20036;-74
2022/09/07 10:13:25;;;;;;;14.93;13.32;;;27.50;1.00;;;;;;5081427;28;20044;-73
2022/09/07 10:15:56;;;;;;;13.55;12.13;;;27.60;1.00;;;;;;5087250;28;20048;-73
2022/09/07 10:18:31;;;;;;;14.98;13.48;;;27.60;1.00;;;;;;5093411;28;20441;-74
2022/09/07 10:21:25;;;;;;;17.55;12.93;;;27.70;1.00;;;;;;5093101;28;20122;-74
2022/09/07 10:23:57;;;;;;;69.30;21.38;;;27.70;1.00;;;;;;5087721;28;20116;-73
2022/09/07 10:26:31;;;;;;;15.68;13.30;;;27.90;1.00;;;;;;5088790;28;20038;-73
2022/09/07 10:29:24;;;;;;;18.55;14.48;;;27.90;43.60;;;;;;5089936;28;20127;-73
2022/09/07 10:32:07;;;;;;;15.20;13.35;;;28.00;99.90;;;;;;5090559;28;20568;-73
2022/09/07 10:34:44;;;;;;;24.05;13.45;;;28.00;99.90;;;;;;5087218;28;20033;-72
2022/09/07 10:37:21;;;;;;;16.00;13.73;;;28.10;99.90;;;;;;5087312;28;20411;-72
2022/09/07 10:40:02;;;;;;;17.30;12.75;;;28.10;99.90;;;;;;5076845;28;20037;-72
2022/09/07 10:42:33;;;;;;;16.40;10.90;;;28.10;99.90;;;;;;5091930;28;20044;-72
2022/09/07 10:45:12;;;;;;;14.45;12.90;;;28.10;34.20;;;;;;5085176;28;20067;-73
2022/09/07 10:47:55;;;;;;;14.13;11.30;;;28.10;99.90;;;;;;5075210;28;20110;-73
2022/09/07 10:50:31;;;;;;;12.88;10.82;;;28.10;1.00;;;;;;5082826;28;20143;-72
2022/09/07 10:53:11;;;;;;;12.80;9.93;;;27.90;1.00;;;;;;5095965;28;20522;-77
2022/09/07 10:55:44;;;;;;;12.40;10.18;;;27.90;99.90;;;;;;5098031;28;20036;-75
2022/09/07 10:58:23;;;;;;;19.92;9.77;;;28.00;99.90;;;;;;5097232;28;20132;-75
2022/09/07 11:01:04;;;;;;;18.77;14.05;;;28.10;1.00;;;;;;5098283;28;20076;-76
2022/09/07 11:03:51;;;;;;;68.47;49.88;;;28.20;1.00;;;;;;5097248;28;20437;-75
2022/09/07 11:06:22;;;;;;;32.15;25.27;;;28.20;1.00;;;;;;5099598;28;20537;-74
2022/09/07 11:09:06;;;;;;;13.55;10.05;;;28.20;99.90;;;;;;5097119;28;20051;-75
2022/09/07 11:11:40;;;;;;;16.27;13.27;;;28.20;99.90;;;;;;5095884;28;20105;-77
2022/09/07 11:14:13;;;;;;;15.80;11.82;;;28.20;99.90;;;;;;5098132;28;20134;-78
2022/09/07 11:16:49;;;;;;;14.07;12.15;;;28.20;99.90;;;;;;5097082;28;20048;-75
2022/09/07 11:19:28;;;;;;;18.08;12.80;;;28.40;99.90;;;;;;5097726;28;20040;-74
2022/09/07 11:22:01;;;;;;;17.00;14.07;;;28.40;99.90;;;;;;5096597;28;20036;-75
2022/09/07 11:24:33;;;;;;;18.95;13.20;;;28.40;1.00;;;;;;5102659;28;20058;-74
2022/09/07 11:27:08;;;;;;;15.10;9.73;;;28.30;21.10;;;;;;5096914;28;20052;-75
2022/09/07 11:29:43;;;;;;;14.75;11.30;;;28.40;1.00;;;;;;5097081;28;20040;-75
2022/09/07 11:32:18;;;;;;;14.15;9.43;;;28.40;1.00;;;;;;5096345;28;20048;-72
2022/09/07 11:34:51;;;;;;;20.67;11.25;;;28.50;99.90;;;;;;5096783;28;20047;-72
2022/09/07 11:37:22;;;;;;;11.40;9.30;;;28.60;1.00;;;;;;5081528;28;20385;-73
2022/09/07 11:39:55;;;;;;;17.00;10.45;;;28.70;1.00;;;;;;5089646;28;20063;-73
2022/09/07 11:42:26;;;;;;;13.63;12.18;;;28.70;1.00;;;;;;5094826;28;20118;-72
2022/09/07 11:44:59;;;;;;;23.33;20.90;;;28.80;1.00;;;;;;5097622;28;20036;-73
2022/09/07 11:47:31;;;;;;;13.00;9.27;;;28.60;99.90;;;;;;5093471;28;20115;-72
2022/09/07 11:50:00;;;;;;;18.25;11.98;;;28.50;99.90;;;;;;5079005;28;20037;-71
2022/09/07 11:52:36;;;;;;;15.07;13.48;;;28.40;99.90;;;;;;5075456;28;20049;-72
2022/09/07 11:55:07;;;;;;;11.93;10.18;;;28.50;99.90;;;;;;5074453;28;20446;-71
2022/09/07 11:57:47;;;;;;;11.13;8.57;;;28.70;99.90;;;;;;5075628;28;20036;-72
2022/09/07 12:00:19;;;;;;;13.45;9.88;;;28.70;1.00;;;;;;5082538;28;20102;-71
2022/09/07 12:03:14;;;;;;;10.18;8.93;;;28.70;99.90;;;;;;5075180;28;20041;-71
2022/09/07 12:06:08;;;;;;;11.38;8.73;;;28.80;1.00;;;;;;5084486;28;20048;-72
2022/09/07 12:08:51;;;;;;;9.82;8.05;;;28.90;99.90;;;;;;5095626;28;20040;-72
2022/09/07 12:11:34;;;;;;;14.70;10.65;;;28.80;1.00;;;;;;5095192;28;20044;-71
2022/09/07 12:14:32;;;;;;;12.50;9.73;;;28.90;1.00;;;;;;5088484;28;20044;-72
2022/09/07 12:17:15;;;;;;;9.82;8.15;;;28.80;99.90;;;;;;5073042;28;20060;-71
2022/09/07 12:19:43;;;;;;;8.60;7.65;;;28.80;1.00;;;;;;5075043;28;20106;-72
2022/09/07 12:22:21;;;;;;;10.23;9.13;;;28.90;1.00;;;;;;5073317;28;20048;-73
2022/09/07 12:24:51;;;;;;;9.98;7.25;;;28.80;1.00;;;;;;5074832;28;20391;-73
2022/09/07 12:27:39;;;;;;;10.63;7.80;;;28.90;99.90;;;;;;5074756;28;20507;-72
2022/09/07 12:30:50;;;;;;;11.73;8.18;;;28.90;1.00;;;;;;5074913;28;20041;-72
2022/09/07 12:33:29;;;;;;;10.32;8.10;;;28.90;1.00;;;;;;5084421;28;20119;-71
2022/09/07 12:35:59;;;;;;;10.38;8.05;;;28.90;1.00;;;;;;5073112;28;20045;-73
2022/09/07 12:39:18;;;;;;;13.68;9.75;;;28.90;99.90;;;;;;5074632;28;20068;-73
2022/09/07 12:41:51;;;;;;;12.85;10.10;;;28.90;1.00;;;;;;5074276;28;20040;-73
2022/09/07 12:44:23;;;;;;;16.85;9.68;;;29.00;1.00;;;;;;5072789;28;20064;-72
2022/09/07 12:47:01;;;;;;;7.93;6.57;;;29.00;1.00;;;;;;5074580;28;20071;-72
2022/09/07 12:50:11;;;;;;;8.95;8.02;;;29.00;6.50;;;;;;5074932;28;20040;-72
2022/09/07 12:53:19;;;;;;;11.30;7.55;;;28.90;1.00;;;;;;5073796;28;20048;-72
2022/09/07 12:56:14;;;;;;;13.70;9.07;;;29.00;1.00;;;;;;5077346;28;20400;-72